createdAt,value
2023-03-03T00:01:49.604Z,12.60
2023-03-03T00:04:18.197Z,11.70
2023-03-03T00:06:47.041Z,13.60
2023-03-03T00:09:16.823Z,12.10
2023-03-03T00:11:47.718Z,14.20
2023-03-03T00:14:28.961Z,15.80
2023-03-03T00:16:58.240Z,12.20
2023-03-03T00:19:27.040Z,16.50
2023-03-03T00:21:57.317Z,14.10
2023-03-03T00:24:37.112Z,17.20
2023-03-03T00:27:24.721Z,15.50
2023-03-03T00:29:57.278Z,14.70
2023-03-03T00:32:47.792Z,16.20
2023-03-03T00:35:39.061Z,17.40
2023-03-03T00:40:49.275Z,16.30
2023-03-03T00:43:28.315Z,14.20
2023-03-03T00:45:58.929Z,18.60
2023-03-03T00:48:34.572Z,16.30
2023-03-03T00:51:22.547Z,15.90
2023-03-03T00:53:52.073Z,16.40
2023-03-03T00:56:21.297Z,16.40
2023-03-03T00:58:51.535Z,16.00
2023-03-03T01:01:21.420Z,15.20
2023-03-03T01:03:53.462Z,16.40
2023-03-03T01:06:24.862Z,14.10
2023-03-03T01:08:53.855Z,15.70
2023-03-03T01:11:24.850Z,14.10
2023-03-03T01:13:53.918Z,15.10
2023-03-03T01:16:27.259Z,15.10
2023-03-03T01:18:57.834Z,15.10
2023-03-03T01:21:26.753Z,14.00
2023-03-03T01:23:57.140Z,16.80
2023-03-03T01:26:25.962Z,14.20
2023-03-03T01:28:58.229Z,13.90
2023-03-03T01:31:27.445Z,14.40
2023-03-03T01:33:56.028Z,14.40
2023-03-03T01:36:25.910Z,15.90
2023-03-03T01:38:55.921Z,16.40
2023-03-03T01:43:59.452Z,13.00
2023-03-03T01:46:32.405Z,13.00
2023-03-03T01:49:04.615Z,14.60
2023-03-03T01:51:36.676Z,15.20
2023-03-03T01:54:07.650Z,16.30
2023-03-03T01:59:10.425Z,14.70
2023-03-03T02:01:41.275Z,18.10
2023-03-03T02:04:20.702Z,13.90
2023-03-03T02:06:57.080Z,12.50
2023-03-03T02:09:39.554Z,13.00
2023-03-03T02:12:09.769Z,13.90
2023-03-03T02:14:38.342Z,12.80
2023-03-03T02:17:13.137Z,16.00
2023-03-03T02:19:56.897Z,16.50
2023-03-03T02:23:02.908Z,12.00
2023-03-03T02:26:06.974Z,15.50
2023-03-03T02:28:37.520Z,14.10
2023-03-03T02:31:12.781Z,14.10
2023-03-03T02:33:46.406Z,15.50
2023-03-03T02:36:19.560Z,14.00
2023-03-03T02:39:00.253Z,14.70
2023-03-03T02:41:47.876Z,11.00
2023-03-03T02:44:18.221Z,14.00
2023-03-03T02:46:48.723Z,14.40
2023-03-03T02:49:20.935Z,14.40
2023-03-03T02:51:49.961Z,16.80
2023-03-03T02:54:20.284Z,14.10
2023-03-03T02:56:50.221Z,16.00
2023-03-03T02:59:19.364Z,14.10
2023-03-03T03:01:50.728Z,13.50
2023-03-03T03:04:25.638Z,15.50
2023-03-03T03:06:57.926Z,14.10
2023-03-03T03:09:29.609Z,14.50
2023-03-03T03:12:03.218Z,17.90
2023-03-03T03:14:35.463Z,13.10
2023-03-03T03:17:05.196Z,14.60
2023-03-03T03:19:34.093Z,14.10
2023-03-03T03:22:04.614Z,17.20
2023-03-03T03:24:35.440Z,14.80
2023-03-03T03:27:06.547Z,14.00
2023-03-03T03:29:39.221Z,14.60
2023-03-03T03:32:08.330Z,14.30
2023-03-03T03:34:37.952Z,12.80
2023-03-03T03:37:10.997Z,11.60
2023-03-03T03:39:59.336Z,14.50
2023-03-03T03:42:29.130Z,14.20
2023-03-03T03:44:59.476Z,10.20
2023-03-03T03:47:29.494Z,9.10
2023-03-03T03:50:02.321Z,10.30
2023-03-03T03:52:32.508Z,12.50
2023-03-03T03:55:02.897Z,13.10
2023-03-03T03:57:31.978Z,12.20
2023-03-03T04:00:24.650Z,12.40
2023-03-03T04:02:55.985Z,17.00
2023-03-03T04:05:25.519Z,8.50
2023-03-03T04:07:56.950Z,9.90
2023-03-03T04:10:26.230Z,12.50
2023-03-03T04:12:55.484Z,11.00
2023-03-03T04:15:25.232Z,11.40
2023-03-03T04:17:54.728Z,15.00
2023-03-03T04:20:23.970Z,13.60
2023-03-03T04:22:57.307Z,12.40
2023-03-03T04:25:26.561Z,12.40
2023-03-03T04:27:55.612Z,13.50
2023-03-03T04:30:25.047Z,13.30
2023-03-03T04:32:58.523Z,14.90
2023-03-03T04:35:28.393Z,12.20
2023-03-03T04:37:58.342Z,13.80
2023-03-03T04:40:27.323Z,13.40
2023-03-03T04:42:56.953Z,13.80
2023-03-03T04:45:26.320Z,12.90
2023-03-03T04:47:56.663Z,10.70
2023-03-03T04:50:26.033Z,13.30
2023-03-03T04:52:55.814Z,13.80
2023-03-03T04:55:25.431Z,10.10
2023-03-03T04:57:55.521Z,9.70
2023-03-03T05:00:26.074Z,11.10
2023-03-03T05:02:55.721Z,11.60
2023-03-03T05:05:25.783Z,11.20
2023-03-03T05:07:54.867Z,12.90
2023-03-03T05:10:23.983Z,11.70
2023-03-03T05:12:53.219Z,14.80
2023-03-03T05:15:22.231Z,11.30
2023-03-03T05:17:53.889Z,14.20
2023-03-03T05:20:23.818Z,11.80
2023-03-03T05:22:53.356Z,18.60
2023-03-03T05:25:24.801Z,14.00
2023-03-03T05:27:56.791Z,13.40
2023-03-03T05:30:25.831Z,11.30
2023-03-03T05:32:54.764Z,12.50
2023-03-03T05:35:25.536Z,13.50
2023-03-03T05:37:58.774Z,18.20
2023-03-03T05:40:28.366Z,15.70
2023-03-03T05:42:57.660Z,17.30
2023-03-03T05:45:26.791Z,14.50
2023-03-03T05:47:56.775Z,15.10
2023-03-03T05:50:28.871Z,20.50
2023-03-03T05:52:59.175Z,16.00
2023-03-03T05:55:29.116Z,13.40
2023-03-03T05:57:58.553Z,21.40
2023-03-03T06:00:27.845Z,16.00
2023-03-03T06:02:57.697Z,14.40
2023-03-03T06:05:29.220Z,14.80
2023-03-03T06:08:03.533Z,13.40
2023-03-03T06:10:34.033Z,14.00
2023-03-03T06:13:07.887Z,13.30
2023-03-03T06:15:41.110Z,12.90
2023-03-03T06:18:13.226Z,17.60
2023-03-03T06:20:45.842Z,12.40
2023-03-03T06:23:16.697Z,12.70
2023-03-03T06:25:50.038Z,11.20
2023-03-03T06:28:20.193Z,11.90
2023-03-03T06:30:54.020Z,14.60
2023-03-03T06:33:24.431Z,12.60
2023-03-03T06:35:54.140Z,17.20
2023-03-03T06:38:24.172Z,14.20
2023-03-03T06:40:53.884Z,14.40
2023-03-03T06:43:23.861Z,12.40
2023-03-03T06:45:53.405Z,13.30
2023-03-03T06:48:23.516Z,12.20
2023-03-03T06:50:54.856Z,14.10
2023-03-03T06:53:24.460Z,12.10
2023-03-03T06:55:56.336Z,12.40
2023-03-03T06:58:27.058Z,16.50
2023-03-03T07:00:59.699Z,8.30
2023-03-03T07:03:35.797Z,14.20
2023-03-03T07:06:22.511Z,13.20
2023-03-03T07:08:54.367Z,18.10
2023-03-03T07:11:25.290Z,12.00
2023-03-03T07:13:56.669Z,10.70
2023-03-03T07:16:28.900Z,11.60
2023-03-03T07:19:05.802Z,11.40
2023-03-03T07:21:37.791Z,13.40
2023-03-03T07:24:20.689Z,11.90
2023-03-03T07:26:51.050Z,15.60
2023-03-03T07:29:27.569Z,10.90
2023-03-03T07:32:02.119Z,12.50
2023-03-03T07:34:40.357Z,9.30
2023-03-03T07:37:33.290Z,13.40
2023-03-03T07:40:03.770Z,15.30
2023-03-03T07:42:41.289Z,12.50
2023-03-03T07:45:38.114Z,10.20
2023-03-03T07:48:14.007Z,13.70
2023-03-03T07:50:43.985Z,9.90
2023-03-03T07:53:27.323Z,9.20
2023-03-03T07:55:56.964Z,12.90
2023-03-03T07:58:36.246Z,12.80
2023-03-03T08:01:28.956Z,11.40
2023-03-03T08:03:58.250Z,13.90
2023-03-03T08:06:33.441Z,10.40
2023-03-03T08:09:11.557Z,10.60
2023-03-03T08:12:22.102Z,13.50
2023-03-03T08:14:52.545Z,12.50
2023-03-03T08:17:26.917Z,12.80
2023-03-03T08:19:56.492Z,10.70
2023-03-03T08:22:38.913Z,11.20
2023-03-03T08:25:10.242Z,9.30
2023-03-03T08:27:40.527Z,10.50
2023-03-03T08:30:10.302Z,11.80
2023-03-03T08:32:39.309Z,11.30
2023-03-03T08:35:09.247Z,10.60
2023-03-03T08:37:39.647Z,11.10
2023-03-03T08:40:11.723Z,11.20
2023-03-03T08:42:41.734Z,10.10
2023-03-03T08:45:11.366Z,14.00
2023-03-03T08:47:40.550Z,12.00
2023-03-03T08:50:13.707Z,9.20
2023-03-03T08:52:43.076Z,8.40
2023-03-03T08:55:16.435Z,7.70
2023-03-03T08:57:45.536Z,9.10
2023-03-03T09:00:16.068Z,10.30
2023-03-03T09:02:45.081Z,8.30
2023-03-03T09:05:14.863Z,14.20
2023-03-03T09:07:47.826Z,8.30
2023-03-03T09:10:20.730Z,10.70
2023-03-03T09:12:51.582Z,7.70
2023-03-03T09:15:30.679Z,10.80
2023-03-03T09:18:38.550Z,8.00
2023-03-03T09:21:30.229Z,10.00
2023-03-03T09:24:00.515Z,8.20
2023-03-03T09:26:31.351Z,12.70
2023-03-03T09:29:15.663Z,9.00
2023-03-03T09:31:47.208Z,9.50
2023-03-03T09:34:22.822Z,6.30
2023-03-03T09:36:53.721Z,7.60
2023-03-03T09:39:27.198Z,7.00
2023-03-03T09:42:23.673Z,15.70
2023-03-03T09:45:05.190Z,10.80
2023-03-03T09:47:53.411Z,7.80
2023-03-03T09:50:43.835Z,5.50
2023-03-03T09:56:02.898Z,7.00
2023-03-03T09:58:47.882Z,11.20
2023-03-03T10:01:44.774Z,12.10
2023-03-03T10:04:23.088Z,12.00
2023-03-03T10:07:19.302Z,15.80
2023-03-03T10:09:54.578Z,8.70
2023-03-03T10:13:08.888Z,10.90
2023-03-03T10:15:48.823Z,9.50
2023-03-03T10:18:53.208Z,10.60
2023-03-03T10:21:26.870Z,10.20
2023-03-03T10:24:10.150Z,14.30
2023-03-03T10:27:20.574Z,6.70
2023-03-03T10:29:58.486Z,7.30
2023-03-03T10:32:34.221Z,7.70
2023-03-03T10:35:27.726Z,12.50
2023-03-03T10:38:22.683Z,7.00
2023-03-03T10:41:12.665Z,9.20
2023-03-03T10:44:00.994Z,7.60
2023-03-03T10:46:52.738Z,7.70
2023-03-03T10:50:04.262Z,8.00
2023-03-03T10:52:54.905Z,8.30
2023-03-03T10:55:42.784Z,8.20
2023-03-03T10:58:43.038Z,8.40
2023-03-03T11:01:40.880Z,9.60
2023-03-03T11:04:40.877Z,10.60
2023-03-03T11:07:26.822Z,18.00
2023-03-03T11:10:00.914Z,10.70
2023-03-03T11:12:48.337Z,8.60
2023-03-03T11:15:36.238Z,8.60
2023-03-03T11:18:36.960Z,12.50
2023-03-03T11:21:27.417Z,8.80
2023-03-03T11:24:00.986Z,8.60
2023-03-03T11:26:43.125Z,8.70
2023-03-03T11:29:30.623Z,5.60
2023-03-03T11:32:14.473Z,6.00
2023-03-03T11:34:47.530Z,8.10
2023-03-03T11:37:45.908Z,7.90
2023-03-03T11:40:19.438Z,15.50
2023-03-03T11:43:02.509Z,9.80
2023-03-03T11:45:50.395Z,6.50
2023-03-03T11:48:43.214Z,8.40
2023-03-03T11:51:25.048Z,7.00
2023-03-03T11:54:04.829Z,5.90
2023-03-03T11:56:44.849Z,9.00
2023-03-03T11:59:40.748Z,6.90
2023-03-03T12:02:21.943Z,4.70
2023-03-03T12:05:09.718Z,4.60
2023-03-03T12:07:54.247Z,5.80
2023-03-03T12:10:49.985Z,4.80
2023-03-03T12:13:24.061Z,8.10
2023-03-03T12:15:58.859Z,7.30
2023-03-03T12:18:51.533Z,6.90
2023-03-03T12:21:29.198Z,8.10
2023-03-03T12:24:07.667Z,6.20
2023-03-03T12:26:55.875Z,5.00
2023-03-03T12:29:35.774Z,3.80
2023-03-03T12:32:16.683Z,3.90
2023-03-03T12:34:59.440Z,6.10
2023-03-03T12:37:56.289Z,5.30
2023-03-03T12:40:29.570Z,6.90
2023-03-03T12:43:26.106Z,4.20
2023-03-03T12:46:19.683Z,6.30
2023-03-03T12:48:48.904Z,4.90
2023-03-03T12:51:40.364Z,4.60
2023-03-03T12:54:16.547Z,11.80
2023-03-03T12:56:55.979Z,10.10
2023-03-03T12:59:46.121Z,12.60
2023-03-03T13:02:37.672Z,11.80
2023-03-03T13:05:06.986Z,9.00
2023-03-03T13:07:39.818Z,17.70
2023-03-03T13:10:09.266Z,27.80
2023-03-03T13:13:19.746Z,33.20
2023-03-03T13:16:05.542Z,68.10
2023-03-03T13:19:04.777Z,47.00
2023-03-03T13:21:38.462Z,26.10
2023-03-03T13:24:12.841Z,19.20
2023-03-03T13:26:45.634Z,12.80
2023-03-03T13:29:26.234Z,10.20
2023-03-03T13:31:58.696Z,5.40
2023-03-03T13:34:42.429Z,5.70
2023-03-03T13:37:16.862Z,5.70
2023-03-03T13:40:12.721Z,6.50
2023-03-03T13:43:03.381Z,7.00
2023-03-03T13:46:02.762Z,6.10
2023-03-03T13:48:45.453Z,3.90
2023-03-03T13:51:14.735Z,5.70
2023-03-03T13:54:17.853Z,5.50
2023-03-03T13:56:49.714Z,8.20
2023-03-03T13:59:25.274Z,9.90
2023-03-03T14:02:02.220Z,6.30
2023-03-03T14:04:36.333Z,4.60
2023-03-03T14:07:14.869Z,5.30
2023-03-03T14:09:53.962Z,6.00
2023-03-03T14:12:42.673Z,4.90
2023-03-03T14:15:32.104Z,4.90
2023-03-03T14:18:05.445Z,4.40
2023-03-03T14:20:49.755Z,6.80
2023-03-03T14:23:57.842Z,6.00
2023-03-03T14:26:27.078Z,5.50
2023-03-03T14:29:34.302Z,5.10
2023-03-03T14:32:21.012Z,6.90
2023-03-03T14:35:01.019Z,7.40
2023-03-03T14:40:22.066Z,11.70
2023-03-03T14:42:54.401Z,8.10
2023-03-03T14:45:41.444Z,11.70
2023-03-03T14:48:17.154Z,11.20
2023-03-03T14:50:56.960Z,13.20
2023-03-03T14:53:36.705Z,11.40
2023-03-03T14:56:35.732Z,14.10
2023-03-03T14:59:26.732Z,11.60
2023-03-03T15:02:11.498Z,15.00
2023-03-03T15:04:40.742Z,12.90
2023-03-03T15:07:29.452Z,12.70
2023-03-03T15:09:59.821Z,14.20
2023-03-03T15:12:33.231Z,15.30
2023-03-03T15:15:03.681Z,15.30
2023-03-03T15:18:10.532Z,17.60
2023-03-03T15:21:00.738Z,13.70
2023-03-03T15:23:53.465Z,15.30
2023-03-03T15:26:58.273Z,14.20
2023-03-03T15:29:37.961Z,15.70
2023-03-03T15:32:30.316Z,14.40
2023-03-03T15:35:06.508Z,17.60
2023-03-03T15:37:44.782Z,18.60
2023-03-03T15:40:30.473Z,15.10
2023-03-03T15:43:34.006Z,17.50
2023-03-03T15:46:35.486Z,13.70
2023-03-03T15:49:14.201Z,12.40
2023-03-03T15:51:50.802Z,16.60
2023-03-03T15:55:00.680Z,13.00
2023-03-03T15:58:25.378Z,13.90
2023-03-03T16:01:27.478Z,15.60
2023-03-03T16:04:00.551Z,17.10
2023-03-03T16:06:52.485Z,15.30
2023-03-03T16:09:25.625Z,13.40
2023-03-03T16:12:23.477Z,17.30
2023-03-03T16:15:21.092Z,14.80
2023-03-03T16:17:57.497Z,16.60
2023-03-03T16:20:34.295Z,15.20
2023-03-03T16:23:17.848Z,15.30
2023-03-03T16:25:59.044Z,18.20
2023-03-03T16:28:36.899Z,13.00
2023-03-03T16:31:19.330Z,18.40
2023-03-03T16:34:15.398Z,23.10
2023-03-03T16:37:03.140Z,13.50
2023-03-03T16:39:57.904Z,12.40
2023-03-03T16:42:31.516Z,16.30
2023-03-03T16:45:07.384Z,14.30
2023-03-03T16:48:04.573Z,13.70
2023-03-03T16:50:45.811Z,10.20
2023-03-03T16:53:26.379Z,11.90
2023-03-03T16:56:05.350Z,13.40
2023-03-03T16:58:56.956Z,12.40
2023-03-03T17:02:02.958Z,12.80
2023-03-03T17:04:46.975Z,10.30
2023-03-03T17:07:24.306Z,14.60
2023-03-03T17:10:05.348Z,13.10
2023-03-03T17:12:55.583Z,15.40
2023-03-03T17:15:51.431Z,14.20
2023-03-03T17:18:26.863Z,14.60
2023-03-03T17:21:02.224Z,17.10
2023-03-03T17:23:41.676Z,25.10
2023-03-03T17:26:32.173Z,27.10
2023-03-03T17:29:36.433Z,20.20
2023-03-03T17:32:12.689Z,11.30
2023-03-03T17:34:56.009Z,10.30
2023-03-03T17:37:49.366Z,12.70
2023-03-03T17:40:22.338Z,15.00
2023-03-03T17:43:16.072Z,26.60
2023-03-03T17:45:46.855Z,13.50
2023-03-03T17:48:24.818Z,10.50
2023-03-03T17:51:12.755Z,13.00
2023-03-03T17:54:06.319Z,10.40
2023-03-03T17:56:57.141Z,10.90
2023-03-03T17:59:55.993Z,12.70
2023-03-03T18:02:42.846Z,11.80
2023-03-03T18:05:30.057Z,13.00
2023-03-03T18:08:32.754Z,20.50
2023-03-03T18:11:24.641Z,23.40
2023-03-03T18:14:17.896Z,30.30
2023-03-03T18:17:10.281Z,19.10
2023-03-03T18:19:59.824Z,13.80
2023-03-03T18:22:31.407Z,14.60
2023-03-03T18:25:13.409Z,13.30
2023-03-03T18:27:44.833Z,14.00
2023-03-03T18:30:19.293Z,11.60
2023-03-03T18:33:00.419Z,16.00
2023-03-03T18:35:39.424Z,15.70
2023-03-03T18:38:18.358Z,15.90
2023-03-03T18:41:10.041Z,17.60
2023-03-03T18:43:51.030Z,16.20
2023-03-03T18:46:23.657Z,14.30
2023-03-03T18:49:06.033Z,15.10
2023-03-03T18:51:35.400Z,14.70
2023-03-03T18:54:22.890Z,17.10
2023-03-03T18:56:58.059Z,17.80
2023-03-03T18:59:33.668Z,15.40
2023-03-03T19:02:12.176Z,23.70
2023-03-03T19:04:43.462Z,20.60
2023-03-03T19:07:44.544Z,18.50
2023-03-03T19:10:20.043Z,18.50
2023-03-03T19:12:59.887Z,17.20
2023-03-03T19:15:35.775Z,19.30
2023-03-03T19:18:30.072Z,27.20
2023-03-03T19:21:23.894Z,22.70
2023-03-03T19:24:03.252Z,21.40
2023-03-03T19:26:54.505Z,21.90
2023-03-03T19:29:42.435Z,20.60
2023-03-03T19:32:34.147Z,20.50
2023-03-03T19:35:14.700Z,24.40
2023-03-03T19:40:41.905Z,23.10
2023-03-03T19:43:45.286Z,25.10
2023-03-03T19:46:38.658Z,23.20
2023-03-03T19:49:17.715Z,23.70
2023-03-03T19:52:17.264Z,23.30
2023-03-03T19:55:18.128Z,25.30
2023-03-03T19:58:05.764Z,25.50
2023-03-03T20:01:25.120Z,26.30
2023-03-03T20:04:30.878Z,24.30
2023-03-03T20:07:22.237Z,24.80
2023-03-03T20:10:11.088Z,23.80
2023-03-03T20:12:53.866Z,28.40
2023-03-03T20:15:41.141Z,57.20
2023-03-03T20:18:31.746Z,41.00
2023-03-03T20:21:23.059Z,94.40
2023-03-03T20:24:27.061Z,55.10
2023-03-03T20:27:04.850Z,29.80
2023-03-03T20:29:41.542Z,57.40
2023-03-03T20:32:23.753Z,36.30
2023-03-03T20:35:10.397Z,26.70
2023-03-03T20:38:04.496Z,24.40
2023-03-03T20:40:57.790Z,25.80
2023-03-03T20:43:57.248Z,30.30
2023-03-03T20:46:44.814Z,27.80
2023-03-03T20:49:23.915Z,26.40
2023-03-03T20:52:25.374Z,26.70
2023-03-03T20:55:04.905Z,23.70
2023-03-03T20:57:48.185Z,23.60
2023-03-03T21:00:40.576Z,22.80
2023-03-03T21:03:45.682Z,20.90
2023-03-03T21:06:21.070Z,25.20
2023-03-03T21:08:55.574Z,25.20
2023-03-03T21:11:30.349Z,23.90
2023-03-03T21:14:24.562Z,28.30
2023-03-03T21:17:03.208Z,26.50
2023-03-03T21:19:37.131Z,24.60
2023-03-03T21:22:06.509Z,24.00
2023-03-03T21:24:56.553Z,22.60
2023-03-03T21:27:33.762Z,23.60
2023-03-03T21:30:16.908Z,24.20
2023-03-03T21:32:48.704Z,20.80
2023-03-03T21:35:19.330Z,22.80
2023-03-03T21:37:58.109Z,24.30
2023-03-03T21:40:34.926Z,22.00
2023-03-03T21:43:04.337Z,22.80
2023-03-03T21:45:33.665Z,25.20
2023-03-03T21:48:04.435Z,22.00
2023-03-03T21:50:43.246Z,25.40
2023-03-03T21:53:12.707Z,24.30
2023-03-03T21:55:49.109Z,24.90
2023-03-03T21:58:23.366Z,22.50
2023-03-03T22:00:54.911Z,21.40
2023-03-03T22:03:24.351Z,23.00
2023-03-03T22:05:54.360Z,21.80
2023-03-03T22:08:24.072Z,22.60
2023-03-03T22:10:56.625Z,18.50
2023-03-03T22:13:27.457Z,22.80
2023-03-03T22:15:56.863Z,21.90
2023-03-03T22:18:26.225Z,22.00
2023-03-03T22:20:59.396Z,21.20
2023-03-03T22:23:28.652Z,19.40
2023-03-03T22:25:57.748Z,18.40
2023-03-03T22:28:29.453Z,20.00
2023-03-03T22:30:58.799Z,20.70
2023-03-03T22:33:31.249Z,19.80
2023-03-03T22:36:00.339Z,20.80
2023-03-03T22:38:29.364Z,22.60
2023-03-03T22:41:00.066Z,21.80
2023-03-03T22:43:30.164Z,23.60
2023-03-03T22:46:01.436Z,20.70
2023-03-03T22:48:31.889Z,25.10
2023-03-03T22:51:01.181Z,24.60
2023-03-03T22:53:46.997Z,19.10
2023-03-03T22:56:16.498Z,19.60
2023-03-03T22:58:46.010Z,20.40
2023-03-03T23:01:17.414Z,18.40
2023-03-03T23:03:50.867Z,17.90
2023-03-03T23:06:19.737Z,18.10
2023-03-03T23:08:53.023Z,19.70
2023-03-03T23:11:25.267Z,19.40
2023-03-03T23:13:55.448Z,16.60
2023-03-03T23:16:25.212Z,15.50
2023-03-03T23:18:57.201Z,19.60
2023-03-03T23:21:26.176Z,20.30
2023-03-03T23:23:55.150Z,16.50
2023-03-03T23:26:24.049Z,20.50
2023-03-03T23:28:53.061Z,15.90
2023-03-03T23:31:22.001Z,17.80
2023-03-03T23:33:51.059Z,20.50
2023-03-03T23:36:20.079Z,15.80
2023-03-03T23:38:48.979Z,19.80
2023-03-03T23:41:19.060Z,17.90
2023-03-03T23:43:48.137Z,20.50
2023-03-03T23:46:18.277Z,19.90
2023-03-03T23:48:47.531Z,19.10
2023-03-03T23:51:16.484Z,18.00
2023-03-03T23:56:14.873Z,21.50
2023-03-03T23:58:43.455Z,16.10
